Time;durP1;ratioP1;P1;durP2;ratioP2;P2;SDS_P1;SDS_P2;PMS_P1;PMS_P2;Temp;Humidity;BMP_temperature;BMP_pressure;BME280_temperature;BME280_humidity;BME280_pressure;Samples;Min_cycle;Max_cycle;Signal;HPM_P1;HPM_P2
2021/09/16 00:00:54;;;;;;;;;;;17.90;1.00;;;;;;5052468;28;19967;-68
2021/09/16 00:03:20;;;;;;;;;;;17.90;1.00;;;;;;5050941;28;20460;-66
2021/09/16 00:05:46;;;;;;;;;;;17.90;1.00;;;;;;5051738;28;19913;-66
2021/09/16 00:08:11;;;;;;;;;;;17.90;1.00;;;;;;5051557;28;20281;-67
2021/09/16 00:10:37;;;;;;;;;;;17.90;1.00;;;;;;5052538;28;20615;-68
2021/09/16 00:13:02;;;;;;;;;;;18.00;1.00;;;;;;5050622;28;20384;-66
2021/09/16 00:15:28;;;;;;;;;;;18.00;1.00;;;;;;5052080;28;20079;-67
2021/09/16 00:17:53;;;;;;;;;;;18.00;1.00;;;;;;5051141;28;19916;-67
2021/09/16 00:20:19;;;;;;;;;;;18.00;1.00;;;;;;5051382;28;19912;-67
2021/09/16 00:22:44;;;;;;;;;;;18.00;1.00;;;;;;5050310;28;19908;-66
2021/09/16 00:25:10;;;;;;;;;;;18.00;1.00;;;;;;5051142;28;19917;-67
2021/09/16 00:27:35;;;;;;;;;;;18.00;1.00;;;;;;5051089;28;19916;-68
2021/09/16 00:30:01;;;;;;;;;;;18.00;1.00;;;;;;5051082;28;20311;-67
2021/09/16 00:32:27;;;;;;;;;;;18.00;1.00;;;;;;5049039;28;20035;-67
2021/09/16 00:34:52;;;;;;;;;;;18.00;1.00;;;;;;5051223;28;19912;-67
2021/09/16 00:37:18;;;;;;;;;;;18.00;1.00;;;;;;5051181;28;19916;-68
2021/09/16 00:39:43;;;;;;;;;;;18.00;1.00;;;;;;5050972;28;20688;-67
2021/09/16 00:42:13;;;;;;;;;;;18.00;1.00;;;;;;5049859;28;19932;-66
2021/09/16 00:44:38;;;;;;;;;;;18.10;1.00;;;;;;5051072;28;19929;-68
2021/09/16 00:47:04;;;;;;;;;;;18.10;1.00;;;;;;5051289;28;19971;-68
2021/09/16 00:49:29;;;;;;;;;;;18.10;1.00;;;;;;5051662;28;19947;-68
2021/09/16 00:51:56;;;;;;;;;;;18.10;1.00;;;;;;5049944;28;20012;-66
2021/09/16 00:54:22;;;;;;;;;;;18.10;1.00;;;;;;5051962;28;19932;-68
2021/09/16 00:56:48;;;;;;;;;;;18.10;1.00;;;;;;5051030;28;19908;-67
2021/09/16 00:59:17;;;;;;;;;;;18.00;1.00;;;;;;5051807;28;20384;-67
2021/09/16 01:01:42;;;;;;;;;;;18.10;1.00;;;;;;5051470;28;20360;-67
2021/09/16 01:04:08;;;;;;;;;;;18.10;1.00;;;;;;5049409;28;19920;-68
2021/09/16 01:06:33;;;;;;;;;;;18.10;1.00;;;;;;5050367;28;19913;-66
2021/09/16 01:08:59;;;;;;;;;;;18.10;1.00;;;;;;5050579;28;20403;-68
2021/09/16 01:11:24;;;;;;;;;;;18.10;1.00;;;;;;5050374;28;19924;-68
2021/09/16 01:13:50;;;;;;;;;;;18.10;1.00;;;;;;5073277;22;19920;-66
2021/09/16 01:16:15;;;;;;;;;;;18.10;1.00;;;;;;5070300;28;19926;-66
2021/09/16 01:18:41;;;;;;;;;;;18.10;1.00;;;;;;5070404;28;19912;-67
2021/09/16 01:21:07;;;;;;;;;;;18.10;1.00;;;;;;5070437;28;19916;-66
2021/09/16 01:23:32;;;;;;;;;;;18.10;1.00;;;;;;5069503;28;19921;-66
2021/09/16 01:25:58;;;;;;;;;;;18.00;1.00;;;;;;5061586;28;19916;-66
2021/09/16 01:28:23;;;;;;;;;;;18.00;1.00;;;;;;5049550;28;19996;-67
2021/09/16 01:30:49;;;;;;;;;;;17.90;1.00;;;;;;5050829;28;19955;-67
2021/09/16 01:33:15;;;;;;;;;;;17.90;1.00;;;;;;5049045;28;19909;-65
2021/09/16 01:35:40;;;;;;;;;;;17.90;1.00;;;;;;5050035;28;20005;-66
2021/09/16 01:38:06;;;;;;;;;;;17.90;1.00;;;;;;5049228;28;19913;-66
2021/09/16 01:40:31;;;;;;;;;;;17.90;1.00;;;;;;5050194;28;19916;-66
2021/09/16 01:42:57;;;;;;;;;;;17.90;1.00;;;;;;5048597;28;19915;-66
2021/09/16 01:45:23;;;;;;;;;;;17.90;1.00;;;;;;5050102;28;20281;-65
2021/09/16 01:47:49;;;;;;;;;;;18.00;1.00;;;;;;5049608;28;19908;-65
2021/09/16 01:50:16;;;;;;;;;;;18.00;1.00;;;;;;5049356;28;19935;-65
2021/09/16 01:52:42;;;;;;;;;;;17.90;1.00;;;;;;5048806;28;19913;-66
2021/09/16 01:55:08;;;;;;;;;;;17.90;1.00;;;;;;5050115;28;20444;-65
2021/09/16 01:57:33;;;;;;;;;;;17.90;1.00;;;;;;5049504;28;19913;-67
2021/09/16 01:59:59;;;;;;;;;;;17.80;1.00;;;;;;5050143;28;20246;-66
2021/09/16 02:02:24;;;;;;;;;;;17.80;1.00;;;;;;5056759;28;20357;-66
2021/09/16 02:04:50;;;;;;;;;;;17.80;1.00;;;;;;5061104;28;20428;-65
2021/09/16 02:07:15;;;;;;;;;;;17.80;1.00;;;;;;5068778;28;19913;-65
2021/09/16 02:09:41;;;;;;;;;;;17.80;1.00;;;;;;5069995;28;19909;-67
2021/09/16 02:12:07;;;;;;;;;;;17.80;1.00;;;;;;5068493;28;20003;-65
2021/09/16 02:14:32;;;;;;;;;;;17.80;1.00;;;;;;5054009;28;19916;-66
2021/09/16 02:16:58;;;;;;;;;;;17.80;1.00;;;;;;5049630;28;19939;-66
2021/09/16 02:19:23;;;;;;;;;;;17.80;1.00;;;;;;5049364;28;19921;-66
2021/09/16 02:21:49;;;;;;;;;;;17.70;1.00;;;;;;5048207;28;19997;-65
2021/09/16 02:24:14;;;;;;;;;;;17.70;1.00;;;;;;5054859;28;19927;-67
2021/09/16 02:26:40;;;;;;;;;;;17.70;1.00;;;;;;5054164;28;19932;-66
2021/09/16 02:29:05;;;;;;;;;;;17.70;1.00;;;;;;5049416;28;19939;-66
2021/09/16 02:31:31;;;;;;;;;;;17.70;1.00;;;;;;5049555;28;19909;-65
2021/09/16 02:33:56;;;;;;;;;;;17.80;1.00;;;;;;5048108;28;20336;-66
2021/09/16 02:36:22;;;;;;;;;;;17.80;1.00;;;;;;5048731;28;19913;-65
2021/09/16 02:38:47;;;;;;;;;;;17.80;1.00;;;;;;5049129;28;19909;-66
2021/09/16 02:41:13;;;;;;;;;;;17.80;1.00;;;;;;5049834;28;19959;-66
2021/09/16 02:43:38;;;;;;;;;;;17.80;1.00;;;;;;5047696;28;20383;-66
2021/09/16 02:46:04;;;;;;;;;;;17.90;1.00;;;;;;5049551;28;20341;-65
2021/09/16 02:48:29;;;;;;;;;;;17.80;1.00;;;;;;5048282;28;19913;-66
2021/09/16 02:50:55;;;;;;;;;;;17.90;1.00;;;;;;5048749;28;20331;-65
2021/09/16 02:53:20;;;;;;;;;;;17.90;1.00;;;;;;5047844;28;19931;-66
2021/09/16 02:55:46;;;;;;;;;;;17.90;1.00;;;;;;5049029;28;19908;-66
2021/09/16 02:58:11;;;;;;;;;;;17.90;1.00;;;;;;5048299;28;20536;-67
2021/09/16 03:00:37;;;;;;;;;;;17.90;1.00;;;;;;5048836;28;19908;-67
2021/09/16 03:03:02;;;;;;;;;;;17.90;1.00;;;;;;5047859;28;19959;-66
2021/09/16 03:05:28;;;;;;;;;;;17.90;1.00;;;;;;5048398;28;19909;-67
2021/09/16 03:07:53;;;;;;;;;;;17.90;1.00;;;;;;5047989;28;20325;-67
2021/09/16 03:10:19;;;;;;;;;;;17.90;1.00;;;;;;5048720;28;19965;-66
2021/09/16 03:12:44;;;;;;;;;;;17.90;1.00;;;;;;5047523;28;19909;-66
2021/09/16 03:15:11;;;;;;;;;;;17.90;1.00;;;;;;5069062;28;20521;-66
2021/09/16 03:17:36;;;;;;;;;;;18.00;1.00;;;;;;5068450;28;20303;-66
2021/09/16 03:20:02;;;;;;;;;;;18.00;1.00;;;;;;5072826;28;19913;-65
2021/09/16 03:22:27;;;;;;;;;;;18.00;1.00;;;;;;5071610;28;19912;-66
2021/09/16 03:24:53;;;;;;;;;;;17.90;1.00;;;;;;5061300;28;19939;-66
2021/09/16 03:27:18;;;;;;;;;;;17.90;1.00;;;;;;5060187;28;20146;-66
2021/09/16 03:29:44;;;;;;;;;;;17.90;1.00;;;;;;5043555;28;19916;-67
2021/09/16 03:32:09;;;;;;;;;;;17.90;1.00;;;;;;5031321;28;20066;-65
2021/09/16 03:34:35;;;;;;;;;;;17.90;1.00;;;;;;5050419;28;19952;-67
2021/09/16 03:37:00;;;;;;;;;;;17.90;1.00;;;;;;5051435;28;20004;-66
2021/09/16 03:39:26;;;;;;;;;;;17.90;1.00;;;;;;5052542;28;20480;-66
2021/09/16 03:41:51;;;;;;;;;;;17.90;1.00;;;;;;5051611;28;20365;-66
2021/09/16 03:44:17;;;;;;;;;;;17.80;1.00;;;;;;5052235;28;19928;-66
2021/09/16 03:46:42;;;;;;;;;;;17.80;1.00;;;;;;5052611;28;20297;-65
2021/09/16 03:49:08;;;;;;;;;;;17.80;1.00;;;;;;5051311;28;20387;-66
2021/09/16 03:51:33;;;;;;;;;;;17.80;1.00;;;;;;5051607;28;19971;-66
2021/09/16 03:53:58;;;;;;;;;;;17.80;1.00;;;;;;5050556;28;19952;-65
2021/09/16 03:56:24;;;;;;;;;;;17.80;1.00;;;;;;5051559;28;19909;-67
2021/09/16 03:58:50;;;;;;;;;;;17.80;1.00;;;;;;5052073;28;19935;-66
2021/09/16 04:01:15;;;;;;;;;;;17.80;1.00;;;;;;5052437;28;19909;-67
2021/09/16 04:03:40;;;;;;;;;;;17.80;1.00;;;;;;5048915;28;19916;-65
2021/09/16 04:06:06;;;;;;;;;;;17.70;1.00;;;;;;5051560;28;19909;-65
2021/09/16 04:08:31;;;;;;;;;;;17.80;1.00;;;;;;5051233;28;19909;-65
2021/09/16 04:10:57;;;;;;;;;;;17.80;1.00;;;;;;5052212;28;19916;-66
2021/09/16 04:13:22;;;;;;;;;;;17.80;1.00;;;;;;5056445;28;19917;-66
2021/09/16 04:15:48;;;;;;;;;;;17.80;1.00;;;;;;5071860;28;19921;-65
2021/09/16 04:18:13;;;;;;;;;;;17.80;1.00;;;;;;5071081;28;19908;-67
2021/09/16 04:20:39;;;;;;;;;;;17.80;1.00;;;;;;5044019;28;19964;-66
2021/09/16 04:23:04;;;;;;;;;;;17.80;1.00;;;;;;5043424;28;19999;-65
2021/09/16 04:25:30;;;;;;;;;;;17.80;1.00;;;;;;5062249;28;20254;-66
2021/09/16 04:27:56;;;;;;;;;;;17.80;1.00;;;;;;5031632;28;19913;-66
2021/09/16 04:30:21;;;;;;;;;;;17.80;1.00;;;;;;5031511;28;20345;-66
2021/09/16 04:32:47;;;;;;;;;;;17.80;1.00;;;;;;5038976;28;19940;-66
2021/09/16 04:35:12;;;;;;;;;;;17.70;1.00;;;;;;5029855;28;19979;-66
2021/09/16 04:37:38;;;;;;;;;;;17.70;1.00;;;;;;5049625;28;20010;-67
2021/09/16 04:40:04;;;;;;;;;;;17.80;1.00;;;;;;5059904;28;19909;-68
2021/09/16 04:42:30;;;;;;;;;;;17.70;1.00;;;;;;5063432;28;19925;-68
2021/09/16 04:44:55;;;;;;;;;;;17.80;1.00;;;;;;5068690;28;20308;-66
2021/09/16 04:47:21;;;;;;;;;;;17.80;1.00;;;;;;5067699;28;20404;-67
2021/09/16 04:49:46;;;;;;;;;;;17.70;1.00;;;;;;5068625;28;19942;-66
2021/09/16 04:52:12;;;;;;;;;;;17.70;1.00;;;;;;5066998;28;19912;-67
2021/09/16 04:54:37;;;;;;;;;;;17.70;1.00;;;;;;5067112;28;20359;-68
2021/09/16 04:57:03;;;;;;;;;;;17.60;1.00;;;;;;5067857;28;20015;-65
2021/09/16 04:59:28;;;;;;;;;;;17.70;1.00;;;;;;5068203;28;19913;-67
2021/09/16 05:01:54;;;;;;;;;;;17.70;1.00;;;;;;5058985;28;20012;-66
2021/09/16 05:04:19;;;;;;;;;;;17.60;1.00;;;;;;5059414;28;19992;-67
2021/09/16 05:06:45;;;;;;;;;;;17.70;1.00;;;;;;5053265;28;20437;-66
2021/09/16 05:09:10;;;;;;;;;;;17.70;1.00;;;;;;5053946;28;19909;-67
2021/09/16 05:11:41;;;;;;;;;;;17.70;1.00;;;;;;5059009;28;20426;-67
2021/09/16 05:14:07;;;;;;;;;;;17.70;1.00;;;;;;5055169;28;19966;-66
2021/09/16 05:16:32;;;;;;;;;;;17.70;1.00;;;;;;5029091;28;20507;-67
2021/09/16 05:18:58;;;;;;;;;;;17.70;1.00;;;;;;5027527;28;19909;-66
2021/09/16 05:21:24;;;;;;;;;;;17.70;1.00;;;;;;5027770;28;19936;-66
2021/09/16 05:23:49;;;;;;;;;;;17.80;1.00;;;;;;5031068;28;19929;-64
2021/09/16 05:26:15;;;;;;;;;;;17.70;1.00;;;;;;5046377;28;19913;-65
2021/09/16 05:28:40;;;;;;;;;;;17.80;1.00;;;;;;5036711;28;19917;-64
2021/09/16 05:31:06;;;;;;;;;;;17.80;1.00;;;;;;5037846;28;20008;-64
2021/09/16 05:33:31;;;;;;;;;;;17.80;1.00;;;;;;5030983;28;20004;-68
2021/09/16 05:35:57;;;;;;;;;;;17.80;1.00;;;;;;5034479;28;19976;-68
2021/09/16 05:38:22;;;;;;;;;;;17.80;1.00;;;;;;5036763;28;19925;-66
2021/09/16 05:40:48;;;;;;;;;;;17.90;1.00;;;;;;5033819;28;19909;-67
2021/09/16 05:43:13;;;;;;;;;;;17.90;1.00;;;;;;5035207;28;19920;-67
2021/09/16 05:45:39;;;;;;;;;;;17.90;1.00;;;;;;5041087;28;19909;-67
2021/09/16 05:48:05;;;;;;;;;;;18.00;1.00;;;;;;5046928;28;19963;-66
2021/09/16 05:50:31;;;;;;;;;;;18.00;1.00;;;;;;5047552;28;20315;-65
2021/09/16 05:52:56;;;;;;;;;;;18.00;1.00;;;;;;5045724;28;19944;-64
2021/09/16 05:55:22;;;;;;;;;;;18.10;1.00;;;;;;5041739;28;19912;-64
2021/09/16 05:57:47;;;;;;;;;;;18.10;1.00;;;;;;5050846;28;20304;-64
2021/09/16 06:00:13;;;;;;;;;;;18.10;1.00;;;;;;5047371;28;19912;-66
2021/09/16 06:02:38;;;;;;;;;;;18.20;1.00;;;;;;5045956;28;19913;-66
2021/09/16 06:05:04;;;;;;;;;;;18.30;1.00;;;;;;5046539;28;19913;-66
2021/09/16 06:07:30;;;;;;;;;;;18.30;1.00;;;;;;5046420;28;20261;-66
2021/09/16 06:09:55;;;;;;;;;;;18.30;1.00;;;;;;5046802;28;19915;-65
2021/09/16 06:12:21;;;;;;;;;;;18.40;1.00;;;;;;5046099;28;19908;-64
2021/09/16 06:14:46;;;;;;;;;;;18.40;1.00;;;;;;5058317;28;19960;-65
2021/09/16 06:17:12;;;;;;;;;;;18.40;1.00;;;;;;5046733;28;19962;-64
2021/09/16 06:19:38;;;;;;;;;;;18.50;1.00;;;;;;5056947;28;19987;-64
2021/09/16 06:22:04;;;;;;;;;;;18.50;1.00;;;;;;5064847;28;20395;-65
2021/09/16 06:24:29;;;;;;;;;;;18.50;1.00;;;;;;5052471;28;20138;-65
2021/09/16 06:26:55;;;;;;;;;;;18.60;1.00;;;;;;5054759;28;19909;-65
2021/09/16 06:29:20;;;;;;;;;;;18.60;1.00;;;;;;5041721;28;19996;-66
2021/09/16 06:31:46;;;;;;;;;;;18.70;1.00;;;;;;5026382;28;19920;-66
2021/09/16 06:34:11;;;;;;;;;;;18.70;1.00;;;;;;5026323;28;19909;-64
2021/09/16 06:36:37;;;;;;;;;;;18.70;1.00;;;;;;5033312;28;19920;-65
2021/09/16 06:39:03;;;;;;;;;;;18.80;1.00;;;;;;5039347;28;19920;-65
2021/09/16 06:41:28;;;;;;;;;;;18.80;1.00;;;;;;5027997;28;20342;-65
2021/09/16 06:43:54;;;;;;;;;;;18.80;1.00;;;;;;5043393;28;19938;-66
2021/09/16 06:46:19;;;;;;;;;;;18.90;1.00;;;;;;5049306;28;19952;-65
2021/09/16 06:48:45;;;;;;;;;;;19.00;1.00;;;;;;5048791;28;19909;-65
2021/09/16 06:51:10;;;;;;;;;;;19.10;1.00;;;;;;5048865;28;19999;-65
2021/09/16 06:53:36;;;;;;;;;;;19.20;1.00;;;;;;5047215;28;20345;-65
2021/09/16 06:56:01;;;;;;;;;;;19.30;1.00;;;;;;5033776;28;19909;-66
2021/09/16 06:58:27;;;;;;;;;;;19.50;1.00;;;;;;5028347;28;20412;-65
2021/09/16 07:00:52;;;;;;;;;;;19.50;1.00;;;;;;5029445;28;20006;-66
2021/09/16 07:03:18;;;;;;;;;;;19.60;1.00;;;;;;5027494;28;20384;-65
2021/09/16 07:05:43;;;;;;;;;;;19.70;1.00;;;;;;5028617;28;20400;-66
2021/09/16 07:08:09;;;;;;;;;;;19.70;1.00;;;;;;5027915;28;20239;-65
2021/09/16 07:10:34;;;;;;;;;;;19.90;1.00;;;;;;5028719;28;20030;-65
2021/09/16 07:13:00;;;;;;;;;;;19.90;1.00;;;;;;5033044;28;19924;-66
2021/09/16 07:15:25;;;;;;;;;;;19.90;1.00;;;;;;5069138;28;19927;-65
2021/09/16 07:17:51;;;;;;;;;;;20.00;1.00;;;;;;5068169;28;19912;-65
2021/09/16 07:20:16;;;;;;;;;;;20.10;1.00;;;;;;5068101;28;19928;-65
2021/09/16 07:22:42;;;;;;;;;;;20.10;1.00;;;;;;5067161;28;19936;-65
2021/09/16 07:25:08;;;;;;;;;;;20.20;1.00;;;;;;5063594;28;19913;-66
2021/09/16 07:27:33;;;;;;;;;;;20.20;1.00;;;;;;5048034;28;19935;-65
2021/09/16 07:29:59;;;;;;;;;;;20.20;1.00;;;;;;5048316;28;19915;-65
2021/09/16 07:32:24;;;;;;;;;;;20.30;1.00;;;;;;5047081;28;19909;-66
2021/09/16 07:34:50;;;;;;;;;;;20.30;1.00;;;;;;5035973;28;19913;-65
2021/09/16 07:37:16;;;;;;;;;;;20.40;1.00;;;;;;5035114;28;20337;-65
2021/09/16 07:39:41;;;;;;;;;;;20.60;1.00;;;;;;5048700;28;19954;-66
2021/09/16 07:42:07;;;;;;;;;;;20.60;1.00;;;;;;5036605;28;19913;-66
2021/09/16 07:44:32;;;;;;;;;;;20.60;1.00;;;;;;5027702;28;19960;-66
2021/09/16 07:46:58;;;;;;;;;;;20.70;1.00;;;;;;5028159;28;19920;-66
2021/09/16 07:49:23;;;;;;;;;;;20.70;1.00;;;;;;5028466;28;19909;-65
2021/09/16 07:51:49;;;;;;;;;;;20.60;1.00;;;;;;5026853;28;20139;-66
2021/09/16 07:54:14;;;;;;;;;;;20.60;1.00;;;;;;5038026;28;19916;-65
2021/09/16 07:56:40;;;;;;;;;;;20.80;1.00;;;;;;5047598;28;19913;-66
2021/09/16 07:59:06;;;;;;;;;;;21.20;1.00;;;;;;5043473;28;19920;-66
2021/09/16 08:01:31;;;;;;;;;;;21.60;99.90;;;;;;5036050;28;19910;-65
2021/09/16 08:03:57;;;;;;;;;;;22.00;99.90;;;;;;5059009;28;20377;-66
2021/09/16 08:06:22;;;;;;;;;;;22.30;99.90;;;;;;5053258;28;19917;-66
2021/09/16 08:08:48;;;;;;;;;;;22.50;46.80;;;;;;5051179;28;19909;-66
2021/09/16 08:11:13;;;;;;;;;;;22.60;1.00;;;;;;5052096;28;19908;-65
2021/09/16 08:13:39;;;;;;;;;;;22.70;95.20;;;;;;5058156;28;19915;-66
2021/09/16 08:16:04;;;;;;;;;;;22.70;1.00;;;;;;5071609;28;19963;-65
2021/09/16 08:18:30;;;;;;;;;;;22.70;1.00;;;;;;5052989;28;20061;-65
2021/09/16 08:20:55;;;;;;;;;;;22.70;1.00;;;;;;5050920;28;19909;-66
2021/09/16 08:23:21;;;;;;;;;;;22.70;1.00;;;;;;5050121;28;19963;-66
2021/09/16 08:25:47;;;;;;;;;;;22.70;1.00;;;;;;5062701;28;19934;-66
2021/09/16 08:28:13;;;;;;;;;;;22.80;1.00;;;;;;5050517;28;20275;-65
2021/09/16 08:30:39;;;;;;;;;;;22.80;1.00;;;;;;5050804;28;19988;-66
2021/09/16 08:33:05;;;;;;;;;;;22.90;1.00;;;;;;5049917;28;19913;-65
2021/09/16 08:35:31;;;;;;;;;;;23.10;99.90;;;;;;5051010;28;19908;-65
2021/09/16 08:37:56;;;;;;;;;;;23.20;1.00;;;;;;5050703;28;19919;-65
2021/09/16 08:40:22;;;;;;;;;;;23.30;1.00;;;;;;5051114;28;19992;-64
2021/09/16 08:42:48;;;;;;;;;;;23.20;99.90;;;;;;5049378;28;19908;-65
2021/09/16 08:45:15;;;;;;;;;;;23.00;1.00;;;;;;5066166;28;20011;-65
2021/09/16 08:47:41;;;;;;;;;;;22.80;1.00;;;;;;5050194;28;20242;-66
2021/09/16 08:50:07;;;;;;;;;;;22.90;99.90;;;;;;5050436;28;19921;-65
2021/09/16 08:52:37;;;;;;;;;;;23.40;1.00;;;;;;5049417;28;19928;-65
2021/09/16 08:55:07;;;;;;;;;;;23.70;99.90;;;;;;5050282;28;19923;-67
2021/09/16 08:57:37;;;;;;;;;;;23.90;25.90;;;;;;5049637;28;20011;-66
2021/09/16 09:00:07;;;;;;;;;;;24.10;1.00;;;;;;5051133;28;19913;-66
2021/09/16 09:02:34;;;;;;;;;;;24.10;1.00;;;;;;5049213;28;19979;-64
2021/09/16 09:04:59;;;;;;;;;;;24.00;1.00;;;;;;5049809;28;19913;-66
2021/09/16 09:07:35;;;;;;;;;;;24.10;1.00;;;;;;5049999;28;19912;-66
2021/09/16 09:10:00;;;;;;;;;;;24.30;1.00;;;;;;5050668;28;19956;-65
2021/09/16 09:12:32;;;;;;;;;;;24.60;99.90;;;;;;5049383;28;19964;-66
2021/09/16 09:14:57;;;;;;;;;;;25.00;99.90;;;;;;5068411;28;20374;-66
2021/09/16 09:17:24;;;;;;;;;;;25.10;99.90;;;;;;5069276;28;20023;-65
2021/09/16 09:19:52;;;;;;;;;;;25.30;99.90;;;;;;5070163;28;19908;-65
2021/09/16 09:22:18;;;;;;;;;;;25.50;2.90;;;;;;5067370;28;19947;-66
2021/09/16 09:24:45;;;;;;;;;;;25.70;1.00;;;;;;5060481;28;19917;-66
2021/09/16 09:27:27;;;;;;;;;;;26.00;1.00;;;;;;5057599;28;19995;-66
2021/09/16 09:30:11;;;;;;;;;;;26.00;1.00;;;;;;5030174;28;19919;-66
2021/09/16 09:32:46;;;;;;;;;;;25.90;1.00;;;;;;5029136;28;20386;-66
2021/09/16 09:35:26;;;;;;;;;;;25.50;1.00;;;;;;5029520;28;19939;-65
2021/09/16 09:37:52;;;;;;;;;;;25.30;1.00;;;;;;5029379;28;19947;-65
2021/09/16 09:40:24;;;;;;;;;;;25.00;1.00;;;;;;5030302;28;19909;-66
2021/09/16 09:42:50;;;;;;;;;;;24.70;1.00;;;;;;5028730;28;19992;-65
2021/09/16 09:45:15;;;;;;;;;;;24.60;1.00;;;;;;5029405;28;20056;-65
2021/09/16 09:47:42;;;;;;;;;;;24.30;1.00;;;;;;5029534;28;19916;-65
2021/09/16 09:50:21;;;;;;;;;;;24.20;1.00;;;;;;5029347;28;19927;-65
2021/09/16 09:52:47;;;;;;;;;;;24.10;1.00;;;;;;5028683;28;19966;-65
2021/09/16 09:55:14;;;;;;;;;;;24.10;23.50;;;;;;5048640;28;19913;-65
2021/09/16 09:57:40;;;;;;;;;;;24.20;73.20;;;;;;5049445;28;19913;-66
2021/09/16 10:00:12;;;;;;;;;;;26.00;1.00;;;;;;5049755;28;19913;-66
2021/09/16 10:02:54;;;;;;;;;;;27.80;1.00;;;;;;5028115;28;19913;-66
2021/09/16 10:05:21;;;;;;;;;;;29.80;99.90;;;;;;5028944;28;19924;-65
2021/09/16 10:07:47;;;;;;;;;;;31.40;99.90;;;;;;5028608;28;19928;-66
2021/09/16 10:10:13;;;;;;;;;;;32.00;99.90;;;;;;5029878;28;20347;-66
2021/09/16 10:12:39;;;;;;;;;;;32.30;99.90;;;;;;5027968;28;20314;-66
2021/09/16 10:15:06;;;;;;;;;;;32.80;99.90;;;;;;5048393;28;20019;-68
2021/09/16 10:17:31;;;;;;;;;;;32.80;99.90;;;;;;5048429;28;19971;-66
2021/09/16 10:19:57;;;;;;;;;;;32.10;99.90;;;;;;5048745;28;19962;-69
2021/09/16 10:22:23;;;;;;;;;;;31.50;99.90;;;;;;5047842;28;19920;-65
2021/09/16 10:24:50;;;;;;;;;;;30.50;99.90;;;;;;5051500;28;19917;-67
2021/09/16 10:27:30;;;;;;;;;;;29.50;99.90;;;;;;5048774;28;20022;-67
2021/09/16 10:29:55;;;;;;;;;;;28.80;99.90;;;;;;5049330;28;20049;-67
2021/09/16 10:32:21;;;;;;;;;;;28.20;99.90;;;;;;5047971;28;20426;-65
2021/09/16 10:34:46;;;;;;;;;;;27.60;99.90;;;;;;5048642;28;19920;-67
2021/09/16 10:37:13;;;;;;;;;;;26.90;99.90;;;;;;5048504;28;20019;-66
2021/09/16 10:39:39;;;;;;;;;;;26.20;99.90;;;;;;5048858;28;20372;-66
2021/09/16 10:42:05;;;;;;;;;;;25.50;99.90;;;;;;5048020;28;19913;-63
2021/09/16 10:44:31;;;;;;;;;;;24.80;1.00;;;;;;5048941;28;19960;-65
2021/09/16 10:47:00;;;;;;;;;;;24.30;1.00;;;;;;5049156;28;19964;-66
2021/09/16 10:49:28;;;;;;;;;;;24.00;99.90;;;;;;5048862;28;20293;-66
2021/09/16 10:51:56;;;;;;;;;;;23.90;99.90;;;;;;5048161;28;19909;-68
2021/09/16 10:54:28;;;;;;;;;;;23.80;1.00;;;;;;5036647;28;19913;-65
2021/09/16 10:57:14;;;;;;;;;;;23.90;1.00;;;;;;5033649;28;19913;-65
2021/09/16 10:59:59;;;;;;;;;;;23.80;1.00;;;;;;5034925;28;20322;-65
2021/09/16 11:02:31;;;;;;;;;;;23.70;1.00;;;;;;5051549;28;19951;-65
2021/09/16 11:04:59;;;;;;;;;;;23.50;99.90;;;;;;5057443;28;19916;-64
2021/09/16 11:10:15;;;;;;;;;;;23.10;99.90;;;;;;5078620;28;19947;-65
2021/09/16 11:12:41;;;;;;;;;;;22.90;1.00;;;;;;5069036;28;19912;-65
2021/09/16 11:15:09;;;;;;;;;;;22.70;99.90;;;;;;5050043;28;19917;-65
2021/09/16 11:17:35;;;;;;;;;;;22.50;1.00;;;;;;5049450;28;20638;-64
2021/09/16 11:20:01;;;;;;;;;;;22.30;99.90;;;;;;5049224;28;19956;-64
2021/09/16 11:22:26;;;;;;;;;;;22.20;99.90;;;;;;5047623;28;19999;-65
2021/09/16 11:24:54;;;;;;;;;;;22.10;6.80;;;;;;5059721;28;19916;-64
2021/09/16 11:27:25;;;;;;;;;;;22.00;1.00;;;;;;5047847;28;19920;-66
2021/09/16 11:29:51;;;;;;;;;;;22.00;99.90;;;;;;5048513;28;19908;-66
2021/09/16 11:32:16;;;;;;;;;;;21.90;99.90;;;;;;5047106;28;19935;-66
2021/09/16 11:34:51;;;;;;;;;;;22.00;99.90;;;;;;5048658;28;19912;-66
2021/09/16 11:37:18;;;;;;;;;;;22.00;99.90;;;;;;5047701;28;19917;-65
2021/09/16 11:39:53;;;;;;;;;;;22.00;99.90;;;;;;5047014;28;20419;-65
2021/09/16 11:42:20;;;;;;;;;;;21.90;99.90;;;;;;5041396;28;19999;-64
2021/09/16 11:44:56;;;;;;;;;;;22.10;1.00;;;;;;5047934;28;20285;-66
2021/09/16 11:47:23;;;;;;;;;;;22.30;99.90;;;;;;5043629;28;19944;-63
2021/09/16 11:49:48;;;;;;;;;;;22.70;26.20;;;;;;5033078;28;19956;-64
2021/09/16 11:52:18;;;;;;;;;;;23.20;1.00;;;;;;5042489;28;19909;-64
2021/09/16 11:55:02;;;;;;;;;;;23.80;1.00;;;;;;5049850;28;19921;-64
2021/09/16 11:57:27;;;;;;;;;;;24.30;99.90;;;;;;5040643;28;19916;-63
2021/09/16 11:59:53;;;;;;;;;;;25.00;99.90;;;;;;5052135;28;19912;-64
2021/09/16 12:02:18;;;;;;;;;;;25.60;1.00;;;;;;5053386;28;19993;-64
2021/09/16 12:04:45;;;;;;;;;;;26.20;99.90;;;;;;5053646;28;19996;-65
2021/09/16 12:07:14;;;;;;;;;;;26.40;1.00;;;;;;5042596;28;20617;-64
2021/09/16 12:09:39;;;;;;;;;;;26.70;1.00;;;;;;5032947;28;20649;-65
2021/09/16 12:12:05;;;;;;;;;;;26.70;1.00;;;;;;5041703;28;19944;-65
2021/09/16 12:14:31;;;;;;;;;;;26.60;1.00;;;;;;5056253;28;19954;-65
2021/09/16 12:17:05;;;;;;;;;;;26.10;1.00;;;;;;5037999;28;20059;-65
2021/09/16 12:19:31;;;;;;;;;;;25.60;1.00;;;;;;5043525;28;19958;-65
2021/09/16 12:21:57;;;;;;;;;;;25.00;1.00;;;;;;5030135;28;20585;-64
2021/09/16 12:24:27;;;;;;;;;;;24.50;1.00;;;;;;5042189;28;19931;-64
2021/09/16 12:26:54;;;;;;;;;;;24.10;1.00;;;;;;5054847;28;19956;-66
2021/09/16 12:29:23;;;;;;;;;;;23.90;31.60;;;;;;5051446;28;20353;-64
2021/09/16 12:32:14;;;;;;;;;;;23.70;68.10;;;;;;5050675;28;19951;-65
2021/09/16 12:34:41;;;;;;;;;;;23.50;99.90;;;;;;5049922;28;20380;-66
2021/09/16 12:37:11;;;;;;;;;;;23.40;99.90;;;;;;5050438;28;19909;-66
2021/09/16 12:39:41;;;;;;;;;;;23.40;99.90;;;;;;5050432;28;19924;-66
2021/09/16 12:42:14;;;;;;;;;;;23.70;1.00;;;;;;5049824;28;19913;-65
2021/09/16 12:44:40;;;;;;;;;;;24.30;99.90;;;;;;5046782;28;19923;-65
2021/09/16 12:47:08;;;;;;;;;;;25.10;99.90;;;;;;5031114;28;20293;-64
2021/09/16 12:49:34;;;;;;;;;;;25.90;1.00;;;;;;5030877;28;19999;-65
2021/09/16 12:51:59;;;;;;;;;;;26.20;1.00;;;;;;5029734;28;20323;-66
2021/09/16 12:54:25;;;;;;;;;;;26.10;1.00;;;;;;5030696;28;19913;-65
2021/09/16 12:56:50;;;;;;;;;;;25.90;1.00;;;;;;5042862;28;19913;-66
2021/09/16 12:59:20;;;;;;;;;;;25.50;1.00;;;;;;5058050;28;19920;-65
2021/09/16 13:01:46;;;;;;;;;;;25.30;1.00;;;;;;5065422;28;20007;-66
2021/09/16 13:04:12;;;;;;;;;;;25.10;1.00;;;;;;5061634;28;19912;-66
2021/09/16 13:06:38;;;;;;;;;;;25.00;1.00;;;;;;5070447;28;20276;-67
2021/09/16 13:09:03;;;;;;;;;;;25.10;1.00;;;;;;5070704;28;19916;-70
2021/09/16 13:11:29;;;;;;;;;;;25.20;1.00;;;;;;5058863;28;19919;-67
2021/09/16 13:14:04;;;;;;;;;;;25.30;1.00;;;;;;5044192;28;20316;-66
2021/09/16 13:16:30;;;;;;;;;;;25.30;1.00;;;;;;5045761;28;19917;-67
2021/09/16 13:18:55;;;;;;;;;;;25.30;1.00;;;;;;5058370;28;20508;-66
2021/09/16 13:21:21;;;;;;;;;;;25.50;1.00;;;;;;5047815;28;20011;-68
2021/09/16 13:23:46;;;;;;;;;;;25.80;1.00;;;;;;5036850;28;19936;-66
2021/09/16 13:26:12;;;;;;;;;;;25.80;1.00;;;;;;5040875;28;19922;-66
2021/09/16 13:28:37;;;;;;;;;;;25.50;1.00;;;;;;5042870;28;20013;-67
2021/09/16 13:31:03;;;;;;;;;;;25.10;1.00;;;;;;5051350;28;20004;-67
2021/09/16 13:33:28;;;;;;;;;;;24.70;1.00;;;;;;5048178;28;19920;-68
2021/09/16 13:35:54;;;;;;;;;;;24.60;1.00;;;;;;5048236;28;19920;-68
2021/09/16 13:38:20;;;;;;;;;;;24.50;1.00;;;;;;5042431;28;19935;-67
2021/09/16 13:40:46;;;;;;;;;;;24.60;1.00;;;;;;5044527;28;19913;-68
2021/09/16 13:43:11;;;;;;;;;;;24.70;1.00;;;;;;5041466;28;20403;-68
2021/09/16 13:45:37;;;;;;;;;;;25.00;1.00;;;;;;5045175;28;19917;-68
2021/09/16 13:48:02;;;;;;;;;;;25.00;1.00;;;;;;5029517;28;19943;-68
2021/09/16 13:50:28;;;;;;;;;;;24.80;1.00;;;;;;5031972;28;20436;-65
2021/09/16 13:52:54;;;;;;;;;;;24.60;1.00;;;;;;5061641;28;19919;-66
2021/09/16 13:55:19;;;;;;;;;;;24.10;1.00;;;;;;5033656;28;19959;-66
2021/09/16 13:57:45;;;;;;;;;;;23.60;1.00;;;;;;5029218;28;19963;-67
2021/09/16 14:00:11;;;;;;;;;;;23.30;1.00;;;;;;5035239;28;19921;-65
2021/09/16 14:02:36;;;;;;;;;;;23.10;1.00;;;;;;5029354;28;19978;-68
2021/09/16 14:05:03;;;;;;;;;;;23.00;1.00;;;;;;5031999;28;19999;-66
2021/09/16 14:07:28;;;;;;;;;;;22.80;1.00;;;;;;5046665;28;19917;-68
2021/09/16 14:09:54;;;;;;;;;;;22.40;1.00;;;;;;5047410;28;19913;-67
2021/09/16 14:12:19;;;;;;;;;;;22.20;1.00;;;;;;5039261;28;19920;-67
2021/09/16 14:14:48;;;;;;;;;;;22.00;1.00;;;;;;5040252;28;20012;-65
2021/09/16 14:17:13;;;;;;;;;;;21.80;1.00;;;;;;5041366;28;19921;-66
2021/09/16 14:19:39;;;;;;;;;;;21.80;1.00;;;;;;5047713;28;19912;-67
2021/09/16 14:22:05;;;;;;;;;;;21.70;1.00;;;;;;5046492;28;19917;-68
2021/09/16 14:24:31;;;;;;;;;;;21.60;1.00;;;;;;5043742;28;20380;-67
2021/09/16 14:26:57;;;;;;;;;;;21.50;1.00;;;;;;5041854;28;19917;-67